Time;durP1;ratioP1;P1;durP2;ratioP2;P2;SDS_P1;SDS_P2;PMS_P1;PMS_P2;Temp;Humidity;BMP_temperature;BMP_pressure;BME280_temperature;BME280_humidity;BME280_pressure;Samples;Min_cycle;Max_cycle;Signal;HPM_P1;HPM_P2
2024/01/31 00:00:58;;;;;;;;;;;;;;;5.02;100.00;102099.06;5045715;28;20693;-78
2024/01/31 00:03:31;;;;;;;;;;;;;;;4.97;100.00;102101.56;5040812;28;19920;-79
2024/01/31 00:06:05;;;;;;;;;;;;;;;4.94;100.00;102106.34;5027709;28;19931;-79
2024/01/31 00:08:38;;;;;;;;;;;;;;;4.94;100.00;102106.34;5040469;28;19929;-79
2024/01/31 00:11:06;;;;;;;;;;;;;;;4.82;100.00;102110.69;5042145;28;19929;-79
2024/01/31 00:13:39;;;;;;;;;;;;;;;4.79;100.00;102112.94;5041811;28;20396;-78
2024/01/31 00:16:13;;;;;;;;;;;;;;;4.81;100.00;102114.41;5040966;28;20368;-79
2024/01/31 00:18:46;;;;;;;;;;;;;;;4.81;100.00;102119.00;5040620;28;19924;-79
2024/01/31 00:21:21;;;;;;;;;;;;;;;4.76;100.00;102124.97;5040144;28;19921;-79
2024/01/31 00:23:49;;;;;;;;;;;;;;;4.71;100.00;102113.97;5043981;28;20282;-79
2024/01/31 00:26:16;;;;;;;;;;;;;;;4.71;100.00;102131.00;5042983;28;19924;-78
2024/01/31 00:28:49;;;;;;;;;;;;;;;4.67;100.00;102118.97;5041941;28;20361;-78
2024/01/31 00:31:18;;;;;;;;;;;;;;;4.63;100.00;102133.88;5040712;28;19921;-79
2024/01/31 00:33:46;;;;;;;;;;;;;;;4.68;100.00;102141.34;5028379;28;20197;-79
2024/01/31 00:36:15;;;;;;;;;;;;;;;4.66;100.00;102133.47;5042662;28;19947;-78
2024/01/31 00:38:49;;;;;;;;;;;;;;;4.65;100.00;102128.28;5041243;28;19924;-79
2024/01/31 00:41:22;;;;;;;;;;;;;;;4.57;100.00;102138.22;5040835;28;19921;-79
2024/01/31 00:43:55;;;;;;;;;;;;;;;4.56;100.00;102141.97;5046025;28;19940;-79
2024/01/31 00:46:28;;;;;;;;;;;;;;;4.51;100.00;102136.34;5041577;28;20695;-79
2024/01/31 00:49:04;;;;;;;;;;;;;;;4.55;100.00;102150.25;5026359;28;19920;-79
2024/01/31 00:51:37;;;;;;;;;;;;;;;4.47;100.00;102155.81;5019497;28;19928;-78
2024/01/31 00:54:12;;;;;;;;;;;;;;;4.50;100.00;102156.25;5042988;28;20262;-79
2024/01/31 00:56:40;;;;;;;;;;;;;;;4.38;100.00;102163.28;5037348;28;20297;-78
2024/01/31 00:59:13;;;;;;;;;;;;;;;4.36;100.00;102162.63;5038860;28;19921;-79
2024/01/31 01:01:46;;;;;;;;;;;;;;;4.35;100.00;102164.50;5046370;28;19932;-78
2024/01/31 01:04:19;;;;;;;;;;;;;;;4.36;100.00;102157.25;5036730;28;19925;-78
2024/01/31 01:06:52;;;;;;;;;;;;;;;4.33;100.00;102158.47;5040599;28;19924;-78
2024/01/31 01:09:21;;;;;;;;;;;;;;;4.31;100.00;102170.47;5040218;28;19928;-79
2024/01/31 01:11:54;;;;;;;;;;;;;;;4.26;100.00;102169.22;5040285;28;19929;-79
2024/01/31 01:14:27;;;;;;;;;;;;;;;4.24;100.00;102170.47;5039321;28;19921;-79
2024/01/31 01:17:00;;;;;;;;;;;;;;;4.29;100.00;102176.06;5040919;28;20380;-79
2024/01/31 01:19:33;;;;;;;;;;;;;;;4.20;100.00;102178.13;5023980;28;20362;-79
2024/01/31 01:22:01;;;;;;;;;;;;;;;4.19;100.00;102189.91;5041458;28;19927;-79
2024/01/31 01:24:35;;;;;;;;;;;;;;;4.17;100.00;102192.00;5039211;28;20317;-79
2024/01/31 01:27:08;;;;;;;;;;;;;;;4.17;100.00;102199.22;5039787;28;19920;-79
2024/01/31 01:29:41;;;;;;;;;;;;;;;4.13;100.00;102201.50;5041392;28;20377;-78
2024/01/31 01:32:14;;;;;;;;;;;;;;;4.08;100.00;102206.66;5039924;28;19925;-79
2024/01/31 01:34:47;;;;;;;;;;;;;;;4.03;100.00;102209.09;5024506;28;19936;-80
2024/01/31 01:37:20;;;;;;;;;;;;;;;4.02;100.00;102207.44;5040809;28;19921;-79
2024/01/31 01:39:54;;;;;;;;;;;;;;;3.99;100.00;102210.53;5038656;28;19932;-79
2024/01/31 01:42:27;;;;;;;;;;;;;;;3.95;100.00;102204.72;5038124;28;19936;-79
2024/01/31 01:44:55;;;;;;;;;;;;;;;4.02;100.00;102216.38;5025807;28;20374;-79
2024/01/31 01:47:28;;;;;;;;;;;;;;;3.98;100.00;102209.72;5038109;28;20479;-78
2024/01/31 01:50:03;;;;;;;;;;;;;;;3.94;100.00;102213.81;5056953;28;19936;-78
2024/01/31 01:52:32;;;;;;;;;;;;;;;3.90;100.00;102220.63;5039220;28;19925;-78
2024/01/31 01:55:07;;;;;;;;;;;;;;;3.91;100.00;102230.38;5038607;28;19920;-79
2024/01/31 01:57:39;;;;;;;;;;;;;;;3.81;100.00;102233.44;5037074;28;19928;-79
2024/01/31 02:00:13;;;;;;;;;;;;;;;3.81;100.00;102244.19;5038562;28;19932;-79
2024/01/31 02:02:46;;;;;;;;;;;;;;;3.85;100.00;102236.53;5043664;28;20530;-79
2024/01/31 02:08:21;;;;;;;;;;;;;;;3.85;100.00;102245.47;5042201;28;20415;-79
2024/01/31 02:10:55;;;;;;;;;;;;;;;3.77;100.00;102234.00;5044477;28;19920;-79
2024/01/31 02:13:28;;;;;;;;;;;;;;;3.78;100.00;102243.75;5045136;28;19952;-78
2024/01/31 02:16:01;;;;;;;;;;;;;;;3.78;100.00;102249.13;5043492;28;19928;-79
2024/01/31 02:18:29;;;;;;;;;;;;;;;3.79;100.00;102259.72;5046022;28;19939;-79
2024/01/31 02:20:57;;;;;;;;;;;;;;;3.76;100.00;102262.81;5045192;28;19925;-79
2024/01/31 02:23:31;;;;;;;;;;;;;;;3.74;100.00;102267.53;5045838;28;19936;-79
2024/01/31 02:26:04;;;;;;;;;;;;;;;3.77;100.00;102274.38;5044429;28;19935;-78
2024/01/31 02:28:32;;;;;;;;;;;;;;;3.90;100.00;102266.44;5023650;28;19932;-78
2024/01/31 02:31:00;;;;;;;;;;;;;;;3.84;100.00;102267.19;5041455;28;19939;-79
2024/01/31 02:33:33;;;;;;;;;;;;;;;3.82;100.00;102261.19;5044100;28;19924;-78
2024/01/31 02:36:06;;;;;;;;;;;;;;;3.87;100.00;102264.13;5042137;28;19983;-78
2024/01/31 02:38:40;;;;;;;;;;;;;;;3.79;100.00;102262.41;5056187;28;19929;-78
2024/01/31 02:41:08;;;;;;;;;;;;;;;3.82;100.00;102269.25;5042227;28;20497;-78
2024/01/31 02:43:42;;;;;;;;;;;;;;;3.73;100.00;102266.72;5045399;28;19944;-78
2024/01/31 02:46:15;;;;;;;;;;;;;;;3.70;100.00;102269.81;5047336;28;20100;-78
2024/01/31 02:48:48;;;;;;;;;;;;;;;3.62;100.00;102259.16;5026677;28;19935;-78
2024/01/31 02:51:21;;;;;;;;;;;;;;;3.65;100.00;102269.53;5045686;28;19931;-79
2024/01/31 02:53:56;;;;;;;;;;;;;;;3.61;100.00;102262.06;5041978;28;19924;-79
2024/01/31 02:56:28;;;;;;;;;;;;;;;3.58;100.00;102266.78;5041386;28;19939;-78
2024/01/31 02:58:56;;;;;;;;;;;;;;;3.43;100.00;102259.84;5046275;28;20400;-78
2024/01/31 03:01:29;;;;;;;;;;;;;;;3.40;100.00;102269.13;5042099;28;19929;-78
2024/01/31 03:04:02;;;;;;;;;;;;;;;3.42;100.00;102266.22;5025370;28;19929;-78
2024/01/31 03:06:35;;;;;;;;;;;;;;;3.33;100.00;102255.59;5043849;28;19924;-78
2024/01/31 03:09:10;;;;;;;;;;;;;;;3.29;100.00;102267.78;5025090;28;20297;-78
2024/01/31 03:11:37;;;;;;;;;;;;;;;3.29;100.00;102264.25;5040540;28;19928;-78
2024/01/31 03:14:11;;;;;;;;;;;;;;;3.39;100.00;102262.88;5045887;28;19932;-79
2024/01/31 03:16:43;;;;;;;;;;;;;;;3.30;100.00;102266.75;5042606;28;19932;-78
2024/01/31 03:19:16;;;;;;;;;;;;;;;3.29;100.00;102275.03;5041209;28;19932;-78
2024/01/31 03:21:45;;;;;;;;;;;;;;;3.34;100.00;102272.56;5042719;28;19920;-79
2024/01/31 03:24:15;;;;;;;;;;;;;;;3.26;100.00;102273.53;5045776;28;19929;-79
2024/01/31 03:26:48;;;;;;;;;;;;;;;3.34;100.00;102280.63;5048082;28;19927;-79
2024/01/31 03:29:16;;;;;;;;;;;;;;;3.29;100.00;102280.41;5053673;28;20765;-79
2024/01/31 03:31:49;;;;;;;;;;;;;;;3.38;100.00;102277.38;5041797;28;20137;-79
2024/01/31 03:34:22;;;;;;;;;;;;;;;3.38;100.00;102287.31;5041550;28;19931;-79
2024/01/31 03:36:55;;;;;;;;;;;;;;;3.36;100.00;102286.69;5041745;28;19928;-79
2024/01/31 03:39:29;;;;;;;;;;;;;;;3.30;100.00;102290.13;5030029;28;19925;-79
2024/01/31 03:41:57;;;;;;;;;;;;;;;3.35;100.00;102301.16;5040348;28;20420;-79
2024/01/31 03:44:32;;;;;;;;;;;;;;;3.37;100.00;102293.69;5043666;28;19928;-78
2024/01/31 03:47:05;;;;;;;;;;;;;;;3.30;100.00;102290.97;5045308;28;19960;-79
2024/01/31 03:49:38;;;;;;;;;;;;;;;3.33;100.00;102298.66;5043561;28;19924;-79
2024/01/31 03:52:06;;;;;;;;;;;;;;;3.29;100.00;102300.06;5046505;28;19924;-78
2024/01/31 03:54:35;;;;;;;;;;;;;;;3.26;100.00;102305.81;5038896;28;20386;-79
2024/01/31 03:57:08;;;;;;;;;;;;;;;3.26;100.00;102311.22;5042307;28;19921;-79
2024/01/31 03:59:41;;;;;;;;;;;;;;;3.18;100.00;102314.84;5018191;28;19927;-78
2024/01/31 04:02:14;;;;;;;;;;;;;;;3.12;100.00;102321.00;5037112;28;20397;-78
2024/01/31 04:04:42;;;;;;;;;;;;;;;3.13;100.00;102313.75;5044250;28;19928;-79
2024/01/31 04:07:15;;;;;;;;;;;;;;;3.09;100.00;102321.34;5036650;28;19928;-79
2024/01/31 04:09:49;;;;;;;;;;;;;;;3.09;100.00;102324.03;5044425;28;19935;-79
2024/01/31 04:12:22;;;;;;;;;;;;;;;3.09;100.00;102333.97;5040093;28;19921;-79
2024/01/31 04:14:55;;;;;;;;;;;;;;;2.99;100.00;102321.66;5043339;28;19925;-78
2024/01/31 04:17:23;;;;;;;;;;;;;;;2.95;100.00;102327.59;5041277;28;19921;-78
2024/01/31 04:19:56;;;;;;;;;;;;;;;2.97;100.00;102329.09;5031960;28;19932;-79
2024/01/31 04:22:29;;;;;;;;;;;;;;;2.93;100.00;102335.88;5043272;28;19928;-78
2024/01/31 04:25:04;;;;;;;;;;;;;;;2.92;100.00;102342.25;5039494;28;19924;-78
2024/01/31 04:27:32;;;;;;;;;;;;;;;2.97;100.00;102330.94;5040272;28;19930;-79
2024/01/31 04:30:05;;;;;;;;;;;;;;;2.97;100.00;102347.06;5042026;28;19928;-79
2024/01/31 04:32:38;;;;;;;;;;;;;;;2.98;100.00;102344.19;5037946;28;19924;-79
2024/01/31 04:35:12;;;;;;;;;;;;;;;2.96;100.00;102346.25;5043932;28;19924;-79
2024/01/31 04:37:45;;;;;;;;;;;;;;;2.96;100.00;102350.81;5041223;28;19928;-78
2024/01/31 04:40:19;;;;;;;;;;;;;;;3.01;100.00;102351.91;5040367;28;19925;-79
2024/01/31 04:42:48;;;;;;;;;;;;;;;2.99;100.00;102353.09;5060292;28;20400;-79
2024/01/31 04:45:20;;;;;;;;;;;;;;;2.95;100.00;102363.38;5039006;28;19924;-78
2024/01/31 04:47:48;;;;;;;;;;;;;;;2.97;100.00;102368.56;5024018;28;20393;-79
2024/01/31 04:50:16;;;;;;;;;;;;;;;2.94;100.00;102366.28;5030798;28;19924;-79
2024/01/31 04:52:49;;;;;;;;;;;;;;;2.89;100.00;102372.22;5040324;28;19932;-78
2024/01/31 04:55:17;;;;;;;;;;;;;;;2.93;100.00;102376.22;5040965;28;19925;-79
2024/01/31 04:57:46;;;;;;;;;;;;;;;2.91;100.00;102382.78;5037684;28;19921;-79
2024/01/31 05:00:23;;;;;;;;;;;;;;;2.91;100.00;102380.91;5040220;28;19921;-78
2024/01/31 05:02:51;;;;;;;;;;;;;;;2.86;100.00;102386.03;5039393;28;19925;-76
2024/01/31 05:05:20;;;;;;;;;;;;;;;2.89;100.00;102381.13;5039130;28;19925;-76
2024/01/31 05:07:48;;;;;;;;;;;;;;;2.87;100.00;102379.63;5024451;28;19925;-75
2024/01/31 05:10:21;;;;;;;;;;;;;;;2.78;100.00;102388.81;5022533;28;19967;-75
2024/01/31 05:12:55;;;;;;;;;;;;;;;2.84;100.00;102380.00;5021450;28;19921;-75
2024/01/31 05:15:23;;;;;;;;;;;;;;;2.83;100.00;102389.09;5039078;28;19936;-74
2024/01/31 05:17:56;;;;;;;;;;;;;;;2.83;100.00;102384.56;5043583;28;19944;-75
2024/01/31 05:20:30;;;;;;;;;;;;;;;2.81;100.00;102383.91;5039508;28;19963;-76
2024/01/31 05:23:03;;;;;;;;;;;;;;;2.81;100.00;102391.97;5040017;28;19921;-77
2024/01/31 05:25:36;;;;;;;;;;;;;;;2.83;100.00;102395.31;5040274;28;20609;-75
2024/01/31 05:28:10;;;;;;;;;;;;;;;2.83;100.00;102400.69;5041963;28;19932;-75
2024/01/31 05:30:38;;;;;;;;;;;;;;;2.81;100.00;102402.72;5023544;28;20411;-74
2024/01/31 05:33:06;;;;;;;;;;;;;;;2.91;100.00;102394.38;5038430;28;19928;-75
2024/01/31 05:35:36;;;;;;;;;;;;;;;2.87;100.00;102418.13;5041860;28;20693;-75
2024/01/31 05:38:04;;;;;;;;;;;;;;;2.87;100.00;102414.59;5040212;28;19925;-76
2024/01/31 05:40:32;;;;;;;;;;;;;;;2.86;100.00;102418.31;5040617;28;19929;-76
2024/01/31 05:43:00;;;;;;;;;;;;;;;2.81;100.00;102415.34;5042013;28;19925;-76
2024/01/31 05:45:29;;;;;;;;;;;;;;;2.87;100.00;102415.44;5040797;28;19924;-75
2024/01/31 05:47:57;;;;;;;;;;;;;;;2.84;100.00;102434.59;5043488;28;19921;-75
2024/01/31 05:50:30;;;;;;;;;;;;;;;2.84;100.00;102434.59;5039787;28;19925;-75
2024/01/31 05:53:03;;;;;;;;;;;;;;;2.83;100.00;102432.09;5040524;28;20312;-75
2024/01/31 05:55:31;;;;;;;;;;;;;;;2.91;100.00;102441.94;5038483;28;19932;-75
2024/01/31 05:58:04;;;;;;;;;;;;;;;2.89;100.00;102442.97;5038565;28;20313;-76
2024/01/31 06:00:39;;;;;;;;;;;;;;;2.88;100.00;102443.16;5039604;28;20255;-77
2024/01/31 06:03:12;;;;;;;;;;;;;;;2.84;100.00;102439.16;5036261;28;19932;-75
2024/01/31 06:05:44;;;;;;;;;;;;;;;2.86;100.00;102443.34;5041895;28;19921;-75
2024/01/31 06:08:12;;;;;;;;;;;;;;;2.88;100.00;102440.47;5037398;28;20352;-76
2024/01/31 06:10:40;;;;;;;;;;;;;;;2.90;100.00;102441.13;5035649;28;19924;-78
2024/01/31 06:13:08;;;;;;;;;;;;;;;2.87;100.00;102433.41;5036575;28;19921;-75
2024/01/31 06:15:36;;;;;;;;;;;;;;;2.84;100.00;102439.16;5039005;28;19931;-75
2024/01/31 06:18:11;;;;;;;;;;;;;;;2.83;100.00;102440.19;5022562;28;19920;-78
2024/01/31 06:20:44;;;;;;;;;;;;;;;2.89;100.00;102451.03;5036161;28;19928;-76
2024/01/31 06:23:17;;;;;;;;;;;;;;;2.86;100.00;102466.72;5040112;28;19925;-75
2024/01/31 06:25:50;;;;;;;;;;;;;;;2.88;100.00;102459.28;5044350;28;20266;-76
2024/01/31 06:28:23;;;;;;;;;;;;;;;2.84;100.00;102456.13;5038291;28;19929;-76
2024/01/31 06:31:02;;;;;;;;;;;;;;;2.92;100.00;102457.91;5014472;28;19925;-76
2024/01/31 06:33:35;;;;;;;;;;;;;;;2.92;100.00;102457.06;5036032;28;19932;-74
2024/01/31 06:36:03;;;;;;;;;;;;;;;2.84;100.00;102461.50;5040134;28;19924;-75
2024/01/31 06:38:36;;;;;;;;;;;;;;;2.84;100.00;102460.69;5037279;28;20409;-76
2024/01/31 06:41:04;;;;;;;;;;;;;;;2.84;100.00;102458.81;5045079;28;19920;-76
2024/01/31 06:43:32;;;;;;;;;;;;;;;2.81;100.00;102461.06;5021360;28;19925;-76
2024/01/31 06:46:00;;;;;;;;;;;;;;;2.88;100.00;102461.97;5027874;28;19932;-75
2024/01/31 06:48:34;;;;;;;;;;;;;;;2.80;100.00;102462.88;5032428;28;19921;-74
2024/01/31 06:51:08;;;;;;;;;;;;;;;2.86;100.00;102477.47;5041258;28;20469;-74
2024/01/31 06:53:36;;;;;;;;;;;;;;;2.87;100.00;102482.66;5044017;28;20463;-75
2024/01/31 06:56:16;;;;;;;;;;;;;;;2.88;100.00;102478.94;5041544;28;19925;-75
2024/01/31 06:58:44;;;;;;;;;;;;;;;2.92;100.00;102475.91;5040783;28;19932;-74
2024/01/31 07:01:17;;;;;;;;;;;;;;;2.89;100.00;102477.94;5043532;28;19924;-75
2024/01/31 07:03:52;;;;;;;;;;;;;;;2.89;100.00;102477.94;5042297;28;19936;-74
2024/01/31 07:06:24;;;;;;;;;;;;;;;3.01;100.00;102481.00;5031222;28;19925;-74
2024/01/31 07:08:58;;;;;;;;;;;;;;;2.93;100.00;102485.63;5043234;28;19932;-74
2024/01/31 07:11:31;;;;;;;;;;;;;;;2.89;100.00;102485.16;5027886;28;19952;-75
2024/01/31 07:14:04;;;;;;;;;;;;;;;2.84;100.00;102482.19;5040785;28;19928;-75
2024/01/31 07:16:32;;;;;;;;;;;;;;;2.91;100.00;102488.50;5041673;28;19925;-77
2024/01/31 07:19:06;;;;;;;;;;;;;;;2.91;100.00;102491.19;5042559;28;20650;-75
2024/01/31 07:21:39;;;;;;;;;;;;;;;2.98;100.00;102493.97;5042574;28;20389;-74
2024/01/31 07:24:07;;;;;;;;;;;;;;;3.00;100.00;102494.66;5029825;28;19921;-75
2024/01/31 07:26:40;;;;;;;;;;;;;;;3.03;100.00;102488.88;5040699;28;19940;-76
2024/01/31 07:29:10;;;;;;;;;;;;;;;2.98;100.00;102491.28;5039634;28;20419;-76
2024/01/31 07:31:42;;;;;;;;;;;;;;;2.96;100.00;102498.72;5023538;28;19925;-76
2024/01/31 07:34:17;;;;;;;;;;;;;;;3.07;100.00;102503.63;5042552;28;19959;-75
2024/01/31 07:36:50;;;;;;;;;;;;;;;3.04;100.00;102507.53;5057900;28;19937;-74
2024/01/31 07:39:23;;;;;;;;;;;;;;;3.05;100.00;102506.50;5041904;28;19932;-74
2024/01/31 07:41:52;;;;;;;;;;;;;;;3.11;100.00;102501.41;5046087;28;19925;-75
2024/01/31 07:44:20;;;;;;;;;;;;;;;3.10;100.00;102510.50;5038453;28;19921;-75
2024/01/31 07:46:53;;;;;;;;;;;;;;;3.12;100.00;102511.16;5026307;28;19936;-76
2024/01/31 07:49:27;;;;;;;;;;;;;;;3.23;100.00;102500.75;5043973;28;19925;-76
2024/01/31 07:52:00;;;;;;;;;;;;;;;3.24;100.00;102501.59;5042131;28;19925;-75
2024/01/31 07:54:33;;;;;;;;;;;;;;;3.26;100.00;102498.72;5062144;28;20593;-76
2024/01/31 07:57:06;;;;;;;;;;;;;;;3.26;100.00;102499.56;5044836;28;19931;-76
2024/01/31 07:59:39;;;;;;;;;;;;;;;3.29;100.00;102499.19;5039217;28;19928;-80
2024/01/31 08:02:12;;;;;;;;;;;;;;;3.39;100.00;102504.28;5044369;28;19924;-74
2024/01/31 08:04:42;;;;;;;;;;;;;;;3.44;100.00;102491.09;5028526;28;19944;-77
2024/01/31 08:07:11;;;;;;;;;;;;;;;3.45;100.00;102500.00;5050807;28;19936;-74
2024/01/31 08:09:44;;;;;;;;;;;;;;;3.48;100.00;102496.94;5034525;28;20309;-76
2024/01/31 08:12:12;;;;;;;;;;;;;;;3.48;100.00;102495.09;5039084;28;19924;-75
2024/01/31 08:14:41;;;;;;;;;;;;;;;3.48;100.00;102492.41;5041460;28;20659;-73
2024/01/31 08:17:09;;;;;;;;;;;;;;;3.54;100.00;102498.88;5054818;28;20328;-73
2024/01/31 08:19:37;;;;;;;;;;;;;;;3.58;100.00;102511.78;5034949;28;19940;-74
2024/01/31 08:22:11;;;;;;;;;;;;;;;3.56;100.00;102502.22;5038154;28;19927;-75
2024/01/31 08:24:44;;;;;;;;;;;;;;;3.73;100.00;102494.78;5035094;28;19940;-76
2024/01/31 08:27:17;;;;;;;;;;;;;;;3.64;100.00;102504.78;4980643;28;19936;-78
2024/01/31 08:29:51;;;;;;;;;;;;;;;3.58;100.00;102514.47;5013025;28;19929;-76
2024/01/31 08:32:24;;;;;;;;;;;;;;;3.58;100.00;102516.34;5006289;28;20384;-77
2024/01/31 08:34:57;;;;;;;;;;;;;;;3.65;100.00;102516.44;4999600;28;19928;-76
2024/01/31 08:37:27;;;;;;;;;;;;;;;3.78;100.00;102513.88;5029931;28;19940;-77
2024/01/31 08:39:54;;;;;;;;;;;;;;;3.69;100.00;102526.63;5011468;28;19929;-76
2024/01/31 08:42:28;;;;;;;;;;;;;;;3.74;100.00;102534.13;5001913;28;19929;-78
2024/01/31 08:45:02;;;;;;;;;;;;;;;3.67;100.00;102552.88;5017621;28;19925;-79
2024/01/31 08:47:30;;;;;;;;;;;;;;;3.76;100.00;102556.31;5013209;28;19935;-76
2024/01/31 08:49:58;;;;;;;;;;;;;;;3.74;100.00;102550.28;5018439;28;19936;-74
2024/01/31 08:52:28;;;;;;;;;;;;;;;3.79;100.00;102555.13;5019604;28;20859;-76
2024/01/31 08:55:01;;;;;;;;;;;;;;;3.85;100.00;102547.13;5017138;28;20034;-75
2024/01/31 08:57:34;;;;;;;;;;;;;;;3.93;100.00;102532.69;5014321;28;19936;-76
2024/01/31 09:00:04;;;;;;;;;;;;;;;3.90;100.00;102527.69;5020362;28;19929;-77
2024/01/31 09:02:32;;;;;;;;;;;;;;;3.97;100.00;102531.28;5017127;28;19935;-78
2024/01/31 09:05:00;;;;;;;;;;;;;;;3.96;100.00;102529.63;5017144;28;21100;-76
2024/01/31 09:07:34;;;;;;;;;;;;;;;3.94;100.00;102520.91;5024146;28;19935;-75
2024/01/31 09:10:03;;;;;;;;;;;;;;;4.08;100.00;102536.19;5016386;28;21839;-76
2024/01/31 09:12:31;;;;;;;;;;;;;;;4.09;100.00;102543.25;5024021;28;20836;-77
2024/01/31 09:15:04;;;;;;;;;;;;;;;4.09;100.00;102543.25;5017824;28;19936;-77
2024/01/31 09:17:37;;;;;;;;;;;;;;;4.02;100.00;102538.78;5016432;28;19951;-76
2024/01/31 09:20:10;;;;;;;;;;;;;;;4.05;100.00;102541.97;5019049;28;20363;-78
2024/01/31 09:22:40;;;;;;;;;;;;;;;4.14;100.00;102537.28;5017385;28;19929;-77
2024/01/31 09:25:14;;;;;;;;;;;;;;;4.21;100.00;102529.25;5001876;28;21160;-78
2024/01/31 09:27:47;;;;;;;;;;;;;;;4.12;100.00;102538.50;5005606;28;19935;-76
2024/01/31 09:30:20;;;;;;;;;;;;;;;4.29;100.00;102529.13;5004016;28;19940;-80
2024/01/31 09:32:48;;;;;;;;;;;;;;;4.29;100.00;102531.00;5015436;28;19928;-79
2024/01/31 09:35:21;;;;;;;;;;;;;;;4.28;100.00;102532.03;4997467;28;19936;-76
2024/01/31 09:37:55;;;;;;;;;;;;;;;4.21;100.00;102531.97;5015214;28;19928;-79
2024/01/31 09:40:28;;;;;;;;;;;;;;;4.19;100.00;102531.31;5000587;28;19964;-78
2024/01/31 09:42:57;;;;;;;;;;;;;;;4.25;100.00;102534.09;5020540;28;21661;-78
2024/01/31 09:45:27;;;;;;;;;;;;;;;4.20;100.00;102520.34;5015629;28;19968;-78
2024/01/31 09:47:57;;;;;;;;;;;;;;;4.11;100.00;102526.06;5017722;28;19939;-77
2024/01/31 09:50:25;;;;;;;;;;;;;;;4.07;100.00;102512.13;5008208;28;19936;-78
2024/01/31 09:53:02;;;;;;;;;;;;;;;4.05;100.00;102506.94;5020561;28;19928;-77
2024/01/31 09:55:34;;;;;;;;;;;;;;;4.13;100.00;102513.22;5009990;28;19929;-79
2024/01/31 09:58:05;;;;;;;;;;;;;;;4.30;100.00;102516.53;4994735;28;19928;-78
2024/01/31 10:00:38;;;;;;;;;;;;;;;4.31;100.00;102512.78;5027492;28;19928;-76
2024/01/31 10:03:08;;;;;;;;;;;;;;;4.28;100.00;102518.56;5004088;28;19928;-77
2024/01/31 10:05:37;;;;;;;;;;;;;;;4.41;100.00;102518.69;5022850;28;20437;-77
2024/01/31 10:08:11;;;;;;;;;;;;;;;4.41;100.00;102506.03;5007880;28;19929;-79
2024/01/31 10:10:39;;;;;;;;;;;;;;;4.42;100.00;102509.59;5020624;28;20413;-77
2024/01/31 10:13:09;;;;;;;;;;;;;;;4.51;100.00;102504.88;5017410;28;20465;-77
2024/01/31 10:15:43;;;;;;;;;;;;;;;4.44;100.00;102510.22;5021031;28;20444;-80
2024/01/31 10:18:16;;;;;;;;;;;;;;;4.41;100.00;102489.84;5000326;28;19925;-79
2024/01/31 10:20:50;;;;;;;;;;;;;;;4.39;100.00;102477.59;5017249;28;20601;-79
2024/01/31 10:23:19;;;;;;;;;;;;;;;4.32;100.00;102461.38;5027633;28;19935;-77
2024/01/31 10:25:55;;;;;;;;;;;;;;;4.26;100.00;102452.19;4990458;28;19951;-78
2024/01/31 10:28:23;;;;;;;;;;;;;;;4.33;100.00;102456.81;5044145;28;19936;-78
2024/01/31 10:30:56;;;;;;;;;;;;;;;4.29;100.00;102450.16;5015611;28;19928;-78
2024/01/31 10:33:33;;;;;;;;;;;;;;;4.28;100.00;102451.16;5015212;28;19928;-77
2024/01/31 10:36:07;;;;;;;;;;;;;;;4.33;100.00;102448.75;5001708;28;19929;-78
2024/01/31 10:38:36;;;;;;;;;;;;;;;4.26;100.00;102452.19;5042669;28;19935;-76
2024/01/31 10:41:11;;;;;;;;;;;;;;;4.30;100.00;102449.13;5005751;28;19939;-78
2024/01/31 10:43:41;;;;;;;;;;;;;;;4.24;100.00;102448.88;5016519;28;19960;-78
2024/01/31 10:46:14;;;;;;;;;;;;;;;4.26;100.00;102456.75;5015586;28;19975;-78
2024/01/31 10:48:47;;;;;;;;;;;;;;;4.05;100.00;102455.75;4998393;28;19928;-78
2024/01/31 10:51:16;;;;;;;;;;;;;;;4.02;100.00;102436.41;5018272;28;19936;-79
2024/01/31 10:53:46;;;;;;;;;;;;;;;3.90;100.00;102439.63;5022214;28;19932;-79
2024/01/31 10:56:16;;;;;;;;;;;;;;;3.97;100.00;102433.50;5015391;28;19929;-78
2024/01/31 10:58:49;;;;;;;;;;;;;;;3.91;100.00;102421.63;5013968;28;19931;-78
2024/01/31 11:01:17;;;;;;;;;;;;;;;4.01;100.00;102410.53;5021953;28;19936;-79
2024/01/31 11:03:46;;;;;;;;;;;;;;;3.99;100.00;102408.03;5005935;28;20570;-76
2024/01/31 11:06:19;;;;;;;;;;;;;;;3.95;100.00;102401.38;5023034;28;20887;-77
2024/01/31 11:08:53;;;;;;;;;;;;;;;3.79;100.00;102393.53;5013658;28;19929;-77
2024/01/31 11:11:26;;;;;;;;;;;;;;;3.77;100.00;102390.19;5018312;28;20428;-78
2024/01/31 11:13:56;;;;;;;;;;;;;;;3.88;100.00;102392.34;5010756;28;19937;-80
2024/01/31 11:16:24;;;;;;;;;;;;;;;3.91;100.00;102392.00;5014684;28;19968;-79
2024/01/31 11:18:53;;;;;;;;;;;;;;;3.95;100.00;102381.66;5020461;28;20376;-79
2024/01/31 11:21:25;;;;;;;;;;;;;;;4.16;100.00;102391.59;5016136;28;19935;-78
2024/01/31 11:23:57;;;;;;;;;;;;;;;4.03;100.00;102382.38;5020995;28;20388;-77
2024/01/31 11:26:33;;;;;;;;;;;;;;;3.92;100.00;102382.88;4976906;28;19932;-79
2024/01/31 11:29:08;;;;;;;;;;;;;;;3.88;100.00;102400.44;5016983;28;19952;-77
2024/01/31 11:31:41;;;;;;;;;;;;;;;3.83;100.00;102390.25;5006982;28;20703;-77
2024/01/31 11:34:08;;;;;;;;;;;;;;;3.83;100.00;102397.50;5019269;28;19935;-79
2024/01/31 11:36:42;;;;;;;;;;;;;;;3.98;100.00;102402.81;5014885;28;20254;-79
2024/01/31 11:39:11;;;;;;;;;;;;;;;4.16;100.00;102405.88;5018245;28;19935;-77
2024/01/31 11:41:44;;;;;;;;;;;;;;;4.21;100.00;102405.28;5018970;28;19935;-79
2024/01/31 11:44:19;;;;;;;;;;;;;;;4.39;100.00;102408.38;5023992;28;19929;-76
2024/01/31 11:46:48;;;;;;;;;;;;;;;4.48;100.00;102402.81;5025966;28;19929;-79
2024/01/31 11:49:21;;;;;;;;;;;;;;;4.41;100.00;102398.19;5000168;28;19929;-78
2024/01/31 11:51:49;;;;;;;;;;;;;;;4.49;100.00;102393.69;5017158;28;20413;-78
2024/01/31 11:54:23;;;;;;;;;;;;;;;4.42;100.00;102393.66;5022566;28;20370;-79
2024/01/31 11:56:57;;;;;;;;;;;;;;;4.48;100.00;102392.88;5004861;28;19928;-77
2024/01/31 11:59:25;;;;;;;;;;;;;;;4.42;100.00;102402.56;5006001;28;20597;-78
2024/01/31 12:01:53;;;;;;;;;;;;;;;4.45;100.00;102387.88;5025775;28;19928;-78
2024/01/31 12:04:22;;;;;;;;;;;;;;;4.58;100.00;102379.88;5013046;28;19929;-79
2024/01/31 12:07:02;;;;;;;;;;;;;;;4.70;100.00;102373.94;5016663;28;19935;-80
2024/01/31 12:09:32;;;;;;;;;;;;;;;4.77;100.00;102356.72;5023677;28;19936;-78
2024/01/31 12:12:00;;;;;;;;;;;;;;;4.82;100.00;102358.84;5012066;28;20861;-78
2024/01/31 12:14:28;;;;;;;;;;;;;;;4.81;100.00;102359.88;5019908;28;19986;-78
2024/01/31 12:17:01;;;;;;;;;;;;;;;4.73;100.00;102349.25;5017625;28;19935;-78
2024/01/31 12:19:34;;;;;;;;;;;;;;;4.57;100.00;102340.47;5002855;28;19929;-78
2024/01/31 12:22:04;;;;;;;;;;;;;;;4.51;100.00;102333.16;5007568;28;20388;-80
2024/01/31 12:24:34;;;;;;;;;;;;;;;4.51;100.00;102321.53;5000958;28;21519;-77
2024/01/31 12:27:07;;;;;;;;;;;;;;;4.28;100.00;102319.13;4981005;28;19935;-78
2024/01/31 12:29:42;;;;;;;;;;;;;;;4.29;100.00;102315.41;5020531;28;20549;-78
2024/01/31 12:32:15;;;;;;;;;;;;;;;4.37;100.00;102317.94;5017723;28;19940;-77
2024/01/31 12:34:48;;;;;;;;;;;;;;;4.26;100.00;102306.66;5006443;28;19929;-79
2024/01/31 12:37:21;;;;;;;;;;;;;;;4.39;100.00;102299.69;5017227;28;19925;-78
2024/01/31 12:39:52;;;;;;;;;;;;;;;4.32;100.00;102290.72;5004827;28;20370;-80
2024/01/31 12:42:25;;;;;;;;;;;;;;;4.38;100.00;102284.56;5016568;28;19940;-80
2024/01/31 12:44:53;;;;;;;;;;;;;;;4.49;100.00;102277.75;4988177;28;20670;-79
2024/01/31 12:47:28;;;;;;;;;;;;;;;4.49;100.00;102285.84;5018187;28;20436;-78
2024/01/31 12:50:00;;;;;;;;;;;;;;;4.55;100.00;102276.97;5004591;28;19928;-78
2024/01/31 12:52:33;;;;;;;;;;;;;;;4.46;100.00;102272.78;5008597;28;19936;-80
2024/01/31 12:55:03;;;;;;;;;;;;;;;4.33;100.00;102273.53;5015318;28;19928;-79
2024/01/31 12:57:31;;;;;;;;;;;;;;;4.14;100.00;102267.81;5013567;28;19929;-78
2024/01/31 12:59:59;;;;;;;;;;;;;;;4.08;100.00;102264.06;5002142;28;19921;-80